createdAt,value
2023-02-25T00:01:39.174Z,14.38
2023-02-25T00:04:06.452Z,19.80
2023-02-25T00:06:33.747Z,15.02
2023-02-25T00:09:01.454Z,15.38
2023-02-25T00:11:30.227Z,15.77
2023-02-25T00:13:57.743Z,15.98
2023-02-25T00:16:27.607Z,17.17
2023-02-25T00:18:57.766Z,13.48
2023-02-25T00:21:25.256Z,14.75
2023-02-25T00:23:53.721Z,18.27
2023-02-25T00:26:21.711Z,20.90
2023-02-25T00:28:49.869Z,17.70
2023-02-25T00:31:19.517Z,19.33
2023-02-25T00:33:47.628Z,13.88
2023-02-25T00:36:21.159Z,16.77
2023-02-25T00:38:49.682Z,21.95
2023-02-25T00:41:19.250Z,13.32
2023-02-25T00:43:51.522Z,15.20
2023-02-25T00:46:19.214Z,18.17
2023-02-25T00:48:46.856Z,15.75
2023-02-25T00:51:16.151Z,19.83
2023-02-25T00:53:43.683Z,21.38
2023-02-25T00:56:15.572Z,17.83
2023-02-25T00:58:46.832Z,21.45
2023-02-25T01:01:25.615Z,16.70
2023-02-25T01:03:55.089Z,23.92
2023-02-25T01:06:26.290Z,18.52
2023-02-25T01:08:53.700Z,14.82
2023-02-25T01:11:27.168Z,16.98
2023-02-25T01:14:08.879Z,12.02
2023-02-25T01:16:38.217Z,15.38
2023-02-25T01:19:13.669Z,20.98
2023-02-25T01:21:42.780Z,19.98
2023-02-25T01:24:15.640Z,14.80
2023-02-25T01:26:44.613Z,16.55
2023-02-25T01:29:16.325Z,11.52
2023-02-25T01:31:44.114Z,15.27
2023-02-25T01:34:16.803Z,22.50
2023-02-25T01:36:44.367Z,15.73
2023-02-25T01:39:13.060Z,11.82
2023-02-25T01:41:40.353Z,11.20
2023-02-25T01:44:09.359Z,15.90
2023-02-25T01:46:37.877Z,18.15
2023-02-25T01:49:36.756Z,15.98
2023-02-25T01:52:24.164Z,18.55
2023-02-25T01:54:54.618Z,13.02
2023-02-25T01:57:22.210Z,17.20
2023-02-25T01:59:49.524Z,12.90
2023-02-25T02:02:19.156Z,14.40
2023-02-25T02:04:50.079Z,13.43
2023-02-25T02:07:18.762Z,10.52
2023-02-25T02:09:57.264Z,17.10
2023-02-25T02:12:26.510Z,13.88
2023-02-25T02:14:53.735Z,16.77
2023-02-25T02:17:42.551Z,13.52
2023-02-25T02:20:20.570Z,13.68
2023-02-25T02:23:12.440Z,11.13
2023-02-25T02:26:07.992Z,13.73
2023-02-25T02:28:44.745Z,13.20
2023-02-25T02:31:24.175Z,11.88
2023-02-25T02:34:27.473Z,14.30
2023-02-25T02:37:24.800Z,14.38
2023-02-25T02:40:05.867Z,12.13
2023-02-25T02:42:40.917Z,11.05
2023-02-25T02:45:26.888Z,11.70
2023-02-25T02:48:25.548Z,13.70
2023-02-25T02:50:56.293Z,14.32
2023-02-25T02:55:58.005Z,12.55
2023-02-25T02:58:36.709Z,14.57
2023-02-25T03:01:17.012Z,10.80
2023-02-25T03:03:46.930Z,15.40
2023-02-25T03:06:20.001Z,19.83
2023-02-25T03:11:17.457Z,16.88
2023-02-25T03:13:44.974Z,14.57
2023-02-25T03:16:17.321Z,15.85
2023-02-25T03:18:57.997Z,18.08
2023-02-25T03:21:28.225Z,17.75
2023-02-25T03:23:55.543Z,20.75
2023-02-25T03:26:30.223Z,19.10
2023-02-25T03:28:57.659Z,20.45
2023-02-25T03:31:27.288Z,17.98
2023-02-25T03:34:14.490Z,21.77
2023-02-25T03:36:54.111Z,16.58
2023-02-25T03:39:23.907Z,16.67
2023-02-25T03:41:53.665Z,18.83
2023-02-25T03:44:24.352Z,17.58
2023-02-25T03:46:51.584Z,17.88
2023-02-25T03:49:26.809Z,14.15
2023-02-25T03:51:54.104Z,11.85
2023-02-25T03:54:27.524Z,14.40
2023-02-25T03:56:54.983Z,19.70
2023-02-25T03:59:28.304Z,23.10
2023-02-25T04:01:56.164Z,27.20
2023-02-25T04:04:23.886Z,25.33
2023-02-25T04:06:51.295Z,29.02
2023-02-25T04:09:19.175Z,30.40
2023-02-25T04:11:46.521Z,33.58
2023-02-25T04:14:15.620Z,29.27
2023-02-25T04:16:45.555Z,31.40
2023-02-25T04:19:14.168Z,31.88
2023-02-25T04:21:42.004Z,28.23
2023-02-25T04:24:09.202Z,29.40
2023-02-25T04:26:36.727Z,28.27
2023-02-25T04:29:05.276Z,26.67
2023-02-25T04:31:34.412Z,24.77
2023-02-25T04:34:01.913Z,23.63
2023-02-25T04:36:33.921Z,22.08
2023-02-25T04:39:03.764Z,27.73
2023-02-25T04:41:33.145Z,27.52
2023-02-25T04:44:03.983Z,37.53
2023-02-25T04:46:37.986Z,30.02
2023-02-25T04:49:05.971Z,25.98
2023-02-25T04:51:35.724Z,28.60
2023-02-25T04:54:03.025Z,31.05
2023-02-25T04:56:30.305Z,26.98
2023-02-25T04:58:57.954Z,26.35
2023-02-25T05:01:25.234Z,35.10
2023-02-25T05:03:56.911Z,24.60
2023-02-25T05:06:25.108Z,24.75
2023-02-25T05:08:52.570Z,22.33
2023-02-25T05:11:20.196Z,21.05
2023-02-25T05:13:47.964Z,23.80
2023-02-25T05:16:18.694Z,32.47
2023-02-25T05:18:46.630Z,30.70
2023-02-25T05:21:15.716Z,23.25
2023-02-25T05:23:43.259Z,28.30
2023-02-25T05:26:10.895Z,22.08
2023-02-25T05:28:39.180Z,22.88
2023-02-25T05:31:08.157Z,26.33
2023-02-25T05:33:36.654Z,32.00
2023-02-25T05:36:08.553Z,27.35
2023-02-25T05:38:36.802Z,27.55
2023-02-25T05:41:06.034Z,33.00
2023-02-25T05:43:33.783Z,49.58
2023-02-25T05:46:04.817Z,42.47
2023-02-25T05:48:32.278Z,40.22
2023-02-25T05:51:07.597Z,43.13
2023-02-25T05:53:35.731Z,36.20
2023-02-25T05:56:07.378Z,38.60
2023-02-25T05:58:35.059Z,35.70
2023-02-25T06:01:19.954Z,31.75
2023-02-25T06:03:47.884Z,29.90
2023-02-25T06:06:16.563Z,30.83
2023-02-25T06:08:45.790Z,22.38
2023-02-25T06:11:18.156Z,26.92
2023-02-25T06:13:45.418Z,30.38
2023-02-25T06:16:12.983Z,27.02
2023-02-25T06:18:42.691Z,25.52
2023-02-25T06:21:11.584Z,27.50
2023-02-25T06:23:40.058Z,28.00
2023-02-25T06:26:10.035Z,25.85
2023-02-25T06:28:39.032Z,21.15
2023-02-25T06:31:11.150Z,19.48
2023-02-25T06:33:39.325Z,23.70
2023-02-25T06:36:07.313Z,19.95
2023-02-25T06:38:35.578Z,22.85
2023-02-25T06:41:07.779Z,23.83
2023-02-25T06:43:36.768Z,24.52
2023-02-25T06:46:05.890Z,20.73
2023-02-25T06:48:37.886Z,18.58
2023-02-25T06:51:09.298Z,24.10
2023-02-25T06:53:37.813Z,25.98
2023-02-25T06:56:06.498Z,21.27
2023-02-25T06:58:34.230Z,20.45
2023-02-25T07:01:07.734Z,21.80
2023-02-25T07:03:35.431Z,23.63
2023-02-25T07:06:04.637Z,25.05
2023-02-25T07:08:32.727Z,21.77
2023-02-25T07:11:14.649Z,17.45
2023-02-25T07:13:43.469Z,19.20
2023-02-25T07:16:12.045Z,23.23
2023-02-25T07:21:09.341Z,20.58
2023-02-25T07:23:36.640Z,20.98
2023-02-25T07:26:08.243Z,14.57
2023-02-25T07:28:35.687Z,20.00
2023-02-25T07:31:04.130Z,17.45
2023-02-25T07:33:33.175Z,22.95
2023-02-25T07:36:00.506Z,20.15
2023-02-25T07:38:27.852Z,18.52
2023-02-25T07:40:55.089Z,19.08
2023-02-25T07:43:22.734Z,15.77
2023-02-25T07:45:53.190Z,16.30
2023-02-25T07:48:20.419Z,16.23
2023-02-25T07:50:48.941Z,19.25
2023-02-25T07:53:16.330Z,19.98
2023-02-25T07:55:44.840Z,15.18
2023-02-25T07:58:12.405Z,13.75
2023-02-25T08:00:41.161Z,13.50
2023-02-25T08:03:10.380Z,15.98
2023-02-25T08:05:38.147Z,18.73
2023-02-25T08:08:09.292Z,13.88
2023-02-25T08:10:37.480Z,13.70
2023-02-25T08:13:05.361Z,18.05
2023-02-25T08:15:33.642Z,11.85
2023-02-25T08:18:03.998Z,13.93
2023-02-25T08:20:31.286Z,12.60
2023-02-25T08:22:59.137Z,9.68
2023-02-25T08:25:27.192Z,12.65
2023-02-25T08:27:54.429Z,13.20
2023-02-25T08:30:21.789Z,10.25
2023-02-25T08:32:51.392Z,14.90
2023-02-25T08:35:21.381Z,10.00
2023-02-25T08:37:48.881Z,9.98
2023-02-25T08:40:17.603Z,13.05
2023-02-25T08:42:46.894Z,8.13
2023-02-25T08:45:14.448Z,12.88
2023-02-25T08:47:42.020Z,11.45
2023-02-25T08:50:10.393Z,9.68
2023-02-25T08:52:39.582Z,12.60
2023-02-25T08:55:08.889Z,11.77
2023-02-25T08:57:38.703Z,12.98
2023-02-25T09:00:07.206Z,7.70
2023-02-25T09:02:34.836Z,14.43
2023-02-25T09:05:02.471Z,12.43
2023-02-25T09:07:30.295Z,11.93
2023-02-25T09:09:59.043Z,10.48
2023-02-25T09:12:26.862Z,12.95
2023-02-25T09:14:58.442Z,9.18
2023-02-25T09:17:25.934Z,13.80
2023-02-25T09:19:53.156Z,9.70
2023-02-25T09:22:20.357Z,11.20
2023-02-25T09:24:47.674Z,13.68
2023-02-25T09:27:14.902Z,10.48
2023-02-25T09:29:42.355Z,10.52
2023-02-25T09:32:11.576Z,14.82
2023-02-25T09:34:40.065Z,9.88
2023-02-25T09:37:09.573Z,11.90
2023-02-25T09:39:37.900Z,14.40
2023-02-25T09:42:11.215Z,11.10
2023-02-25T09:44:41.039Z,9.25
2023-02-25T09:47:28.342Z,8.82
2023-02-25T09:50:04.116Z,9.95
2023-02-25T09:52:42.512Z,12.00
2023-02-25T09:55:20.782Z,11.55
2023-02-25T09:58:11.280Z,18.42
2023-02-25T10:01:17.298Z,16.02
2023-02-25T10:03:53.421Z,13.38
2023-02-25T10:06:39.515Z,12.18
2023-02-25T10:09:43.601Z,11.82
2023-02-25T10:12:10.905Z,13.90
2023-02-25T10:14:50.402Z,13.32
2023-02-25T10:17:43.408Z,8.45
2023-02-25T10:20:27.031Z,11.35
2023-02-25T10:23:15.269Z,11.15
2023-02-25T10:26:18.061Z,10.98
2023-02-25T10:28:51.070Z,13.43
2023-02-25T10:31:18.896Z,12.52
2023-02-25T10:33:48.374Z,11.07
2023-02-25T10:36:23.020Z,11.52
2023-02-25T10:38:52.121Z,17.35
2023-02-25T10:41:22.893Z,22.65
2023-02-25T10:43:50.841Z,13.60
2023-02-25T10:46:21.869Z,15.07
2023-02-25T10:48:57.609Z,9.90
2023-02-25T10:51:25.966Z,15.40
2023-02-25T10:53:53.454Z,14.95
2023-02-25T10:56:20.914Z,11.00
2023-02-25T10:59:04.783Z,12.40
2023-02-25T11:01:42.541Z,11.40
2023-02-25T11:04:12.379Z,13.95
2023-02-25T11:06:41.589Z,19.45
2023-02-25T11:09:21.261Z,13.73
2023-02-25T11:11:56.773Z,9.55
2023-02-25T11:14:32.160Z,14.90
2023-02-25T11:17:27.978Z,13.80
2023-02-25T11:20:01.631Z,10.82
2023-02-25T11:22:33.386Z,10.45
2023-02-25T11:25:02.687Z,16.38
2023-02-25T11:27:41.398Z,9.60
2023-02-25T11:30:14.645Z,15.38
2023-02-25T11:32:53.855Z,14.65
2023-02-25T11:35:29.896Z,17.42
2023-02-25T11:37:59.872Z,16.58
2023-02-25T11:40:31.750Z,12.93
2023-02-25T11:43:05.222Z,16.55
2023-02-25T11:45:49.223Z,14.63
2023-02-25T11:48:25.113Z,10.25
2023-02-25T11:51:17.071Z,13.75
2023-02-25T11:53:54.351Z,12.65
2023-02-25T11:56:43.950Z,11.05
2023-02-25T11:59:38.598Z,10.93
2023-02-25T12:02:26.416Z,11.20
2023-02-25T12:04:59.829Z,13.73
2023-02-25T12:08:14.072Z,11.90
2023-02-25T12:10:55.930Z,11.63
2023-02-25T12:13:29.238Z,14.93
2023-02-25T12:16:33.186Z,16.52
2023-02-25T12:19:18.541Z,16.48
2023-02-25T12:21:56.637Z,15.52
2023-02-25T12:24:45.495Z,20.88
2023-02-25T12:27:18.540Z,19.90
2023-02-25T12:29:56.336Z,15.68
2023-02-25T12:32:26.573Z,16.08
2023-02-25T12:34:53.956Z,15.73
2023-02-25T12:37:34.122Z,13.20
2023-02-25T12:40:20.036Z,12.60
2023-02-25T12:43:07.966Z,14.60
2023-02-25T12:45:48.565Z,14.77
2023-02-25T12:48:44.217Z,12.32
2023-02-25T12:51:25.616Z,13.60
2023-02-25T12:54:05.176Z,13.80
2023-02-25T12:56:41.374Z,14.15
2023-02-25T12:59:18.697Z,15.52
2023-02-25T13:01:52.192Z,9.73
2023-02-25T13:04:25.316Z,12.00
2023-02-25T13:07:02.748Z,11.05
2023-02-25T13:09:41.932Z,18.25
2023-02-25T13:12:30.092Z,13.90
2023-02-25T13:15:12.396Z,13.57
2023-02-25T13:17:46.424Z,12.13
2023-02-25T13:20:22.763Z,14.38
2023-02-25T13:23:12.422Z,9.50
2023-02-25T13:25:53.442Z,15.55
2023-02-25T13:28:32.114Z,14.05
2023-02-25T13:31:03.133Z,11.50
2023-02-25T13:33:57.976Z,12.07
2023-02-25T13:36:47.749Z,9.15
2023-02-25T13:39:36.862Z,15.55
2023-02-25T13:42:46.169Z,12.93
2023-02-25T13:45:25.799Z,12.65
2023-02-25T13:48:34.570Z,16.50
2023-02-25T13:51:14.178Z,16.42
2023-02-25T13:53:50.579Z,17.27
2023-02-25T13:59:11.774Z,13.57
2023-02-25T14:01:55.548Z,13.05
2023-02-25T14:04:35.666Z,14.32
2023-02-25T14:07:21.765Z,12.15
2023-02-25T14:10:07.683Z,13.48
2023-02-25T14:12:51.422Z,11.88
2023-02-25T14:15:26.668Z,15.10
2023-02-25T14:18:12.280Z,17.88
2023-02-25T14:20:46.480Z,15.32
2023-02-25T14:23:20.198Z,21.13
2023-02-25T14:26:27.044Z,18.20
2023-02-25T14:29:31.837Z,20.15
2023-02-25T14:32:38.766Z,14.02
2023-02-25T14:35:19.058Z,18.15
2023-02-25T14:37:55.309Z,15.50
2023-02-25T14:40:22.539Z,19.13
2023-02-25T14:43:17.547Z,17.42
2023-02-25T14:45:56.517Z,21.00
2023-02-25T14:48:32.639Z,20.58
2023-02-25T14:51:01.082Z,19.65
2023-02-25T14:53:36.637Z,16.60
2023-02-25T14:56:26.325Z,28.05
2023-02-25T14:59:22.471Z,16.45
2023-02-25T15:02:08.124Z,19.67
2023-02-25T15:05:21.922Z,16.30
2023-02-25T15:08:20.040Z,17.17
2023-02-25T15:11:07.166Z,18.85
2023-02-25T15:13:57.220Z,23.75
2023-02-25T15:16:48.805Z,24.33
2023-02-25T15:22:25.214Z,20.13
2023-02-25T15:24:54.326Z,20.98
2023-02-25T15:27:35.962Z,18.95
2023-02-25T15:30:12.355Z,17.70
2023-02-25T15:33:13.963Z,25.52
2023-02-25T15:35:41.227Z,29.13
2023-02-25T15:38:45.571Z,27.40
2023-02-25T15:41:34.988Z,21.23
2023-02-25T15:44:08.315Z,28.88
2023-02-25T15:46:37.220Z,19.60
2023-02-25T15:49:07.677Z,25.73
2023-02-25T15:51:57.247Z,17.08
2023-02-25T15:54:30.441Z,27.05
2023-02-25T15:57:10.245Z,21.00
2023-02-25T15:59:46.859Z,17.95
2023-02-25T16:02:29.443Z,22.50
2023-02-25T16:05:22.298Z,24.63
2023-02-25T16:08:14.552Z,22.00
2023-02-25T16:10:46.412Z,21.60
2023-02-25T16:13:21.297Z,23.83
2023-02-25T16:15:50.117Z,27.65
2023-02-25T16:18:31.450Z,32.17
2023-02-25T16:21:06.279Z,40.30
2023-02-25T16:23:34.199Z,29.60
2023-02-25T16:26:22.295Z,22.17
2023-02-25T16:28:52.694Z,32.65
2023-02-25T16:31:23.898Z,40.30
2023-02-25T16:36:29.015Z,37.00
2023-02-25T16:39:00.573Z,29.52
2023-02-25T16:41:37.707Z,33.83
2023-02-25T16:44:06.366Z,29.58
2023-02-25T16:46:35.473Z,30.75
2023-02-25T16:49:05.008Z,33.50
2023-02-25T16:51:37.368Z,26.38
2023-02-25T16:54:19.737Z,31.27
2023-02-25T16:56:48.992Z,25.30
2023-02-25T16:59:21.593Z,20.30
2023-02-25T17:02:01.210Z,22.10
2023-02-25T17:04:31.271Z,20.02
2023-02-25T17:07:10.377Z,23.63
2023-02-25T17:09:47.956Z,17.80
2023-02-25T17:12:31.905Z,23.45
2023-02-25T17:15:00.908Z,19.70
2023-02-25T17:17:30.426Z,24.60
2023-02-25T17:19:58.329Z,20.67
2023-02-25T17:22:26.539Z,16.23
2023-02-25T17:24:55.861Z,20.17
2023-02-25T17:27:24.004Z,20.20
2023-02-25T17:29:53.523Z,17.95
2023-02-25T17:32:24.534Z,19.65
2023-02-25T17:34:53.865Z,17.70
2023-02-25T17:37:21.850Z,22.85
2023-02-25T17:39:49.231Z,18.10
2023-02-25T17:42:29.095Z,23.20
2023-02-25T17:44:56.617Z,24.98
2023-02-25T17:47:26.363Z,19.35
2023-02-25T17:49:53.691Z,26.65
2023-02-25T17:52:26.964Z,26.83
2023-02-25T17:55:00.131Z,21.40
2023-02-25T17:57:30.175Z,23.20
2023-02-25T18:00:14.189Z,21.42
2023-02-25T18:02:44.058Z,27.58
2023-02-25T18:05:14.320Z,24.58
2023-02-25T18:07:43.221Z,25.38
2023-02-25T18:10:45.086Z,27.10
2023-02-25T18:13:35.259Z,26.98
2023-02-25T18:16:12.012Z,27.55
2023-02-25T18:18:39.368Z,26.15
2023-02-25T18:21:06.854Z,24.60
2023-02-25T18:23:35.073Z,24.25
2023-02-25T18:26:16.440Z,27.08
2023-02-25T18:28:45.705Z,29.75
2023-02-25T18:31:16.985Z,31.95
2023-02-25T18:33:46.189Z,29.13
2023-02-25T18:36:23.553Z,36.45
2023-02-25T18:38:51.223Z,27.25
2023-02-25T18:41:18.705Z,28.10
2023-02-25T18:43:46.782Z,26.23
2023-02-25T18:46:14.258Z,38.45
2023-02-25T18:48:41.803Z,25.20
2023-02-25T18:51:11.567Z,31.23
2023-02-25T18:53:38.783Z,31.63
2023-02-25T18:56:07.327Z,29.00
2023-02-25T18:58:35.126Z,32.95
2023-02-25T19:01:02.486Z,31.88
2023-02-25T19:03:33.764Z,33.17
2023-02-25T19:06:01.272Z,28.23
2023-02-25T19:08:28.949Z,31.40
2023-02-25T19:10:56.445Z,35.20
2023-02-25T19:13:25.931Z,47.78
2023-02-25T19:15:53.934Z,33.17
2023-02-25T19:18:22.078Z,35.35
2023-02-25T19:20:51.803Z,34.33
2023-02-25T19:23:19.548Z,37.88
2023-02-25T19:25:47.819Z,35.05
2023-02-25T19:28:15.639Z,42.25
2023-02-25T19:30:43.431Z,47.95
2023-02-25T19:33:15.775Z,42.03
2023-02-25T19:35:43.230Z,41.97
2023-02-25T19:38:15.193Z,41.80
2023-02-25T19:40:44.125Z,42.58
2023-02-25T19:43:11.663Z,46.60
2023-02-25T19:45:40.080Z,49.42
2023-02-25T19:48:07.554Z,45.03
2023-02-25T19:50:35.166Z,45.28
2023-02-25T19:53:06.460Z,47.20
2023-02-25T19:55:34.358Z,47.38
2023-02-25T19:58:02.150Z,39.92
2023-02-25T20:00:29.484Z,49.35
2023-02-25T20:02:56.744Z,43.05
2023-02-25T20:05:24.299Z,48.53
2023-02-25T20:07:52.721Z,50.88
2023-02-25T20:10:21.801Z,49.80
2023-02-25T20:12:52.320Z,51.92
2023-02-25T20:15:20.093Z,51.00
2023-02-25T20:17:48.098Z,49.00
2023-02-25T20:20:15.602Z,46.55
2023-02-25T20:22:43.465Z,55.95
2023-02-25T20:25:11.120Z,56.83
2023-02-25T20:27:39.923Z,56.58
2023-02-25T20:30:08.332Z,57.85
2023-02-25T20:32:36.209Z,59.25
2023-02-25T20:35:04.203Z,62.15
2023-02-25T20:37:33.737Z,63.90
2023-02-25T20:40:01.126Z,57.47
2023-02-25T20:42:30.106Z,60.40
2023-02-25T20:44:58.047Z,59.53
2023-02-25T20:47:30.269Z,60.40
2023-02-25T20:49:58.387Z,64.05
2023-02-25T20:52:29.158Z,67.00
2023-02-25T20:54:56.510Z,61.15
2023-02-25T20:57:24.306Z,61.13
2023-02-25T20:59:53.299Z,60.08
2023-02-25T21:02:20.891Z,55.45
2023-02-25T21:04:48.369Z,57.53
2023-02-25T21:07:15.670Z,60.75
2023-02-25T21:09:48.172Z,53.80
2023-02-25T21:12:15.520Z,63.97
2023-02-25T21:14:42.726Z,65.35
2023-02-25T21:17:13.567Z,70.65
2023-02-25T21:19:40.868Z,68.15
2023-02-25T21:22:08.810Z,76.15
2023-02-25T21:24:36.800Z,78.07
2023-02-25T21:27:04.099Z,66.22
2023-02-25T21:29:32.692Z,68.88
2023-02-25T21:32:00.337Z,68.22
2023-02-25T21:34:28.753Z,63.70
2023-02-25T21:36:58.321Z,71.00
2023-02-25T21:39:26.027Z,66.53
2023-02-25T21:41:53.376Z,60.85
2023-02-25T21:44:22.320Z,68.93
2023-02-25T21:46:49.746Z,65.18
2023-02-25T21:49:17.029Z,56.35
2023-02-25T21:51:44.309Z,68.57
2023-02-25T21:54:12.164Z,69.10
2023-02-25T21:56:40.772Z,67.28
2023-02-25T21:59:08.198Z,62.90
2023-02-25T22:01:37.226Z,75.40
2023-02-25T22:04:05.236Z,67.28
2023-02-25T22:06:33.488Z,83.95
2023-02-25T22:09:01.298Z,69.50
2023-02-25T22:11:30.194Z,63.05
2023-02-25T22:14:01.584Z,54.75
2023-02-25T22:16:29.438Z,57.55
2023-02-25T22:18:56.931Z,55.28
2023-02-25T22:21:32.690Z,57.45
2023-02-25T22:24:01.479Z,60.15
2023-02-25T22:26:31.804Z,57.70
2023-02-25T22:29:01.426Z,50.13
2023-02-25T22:31:28.992Z,49.97
2023-02-25T22:33:56.931Z,63.60
2023-02-25T22:36:24.978Z,55.85
2023-02-25T22:38:52.506Z,50.58
2023-02-25T22:41:24.395Z,58.55
2023-02-25T22:43:51.835Z,47.75
2023-02-25T22:46:29.713Z,58.03
2023-02-25T22:48:57.225Z,55.47
2023-02-25T22:51:32.568Z,59.15
2023-02-25T22:54:00.424Z,58.53
2023-02-25T22:56:27.914Z,69.28
2023-02-25T22:58:55.270Z,72.82
2023-02-25T23:01:23.272Z,80.50
2023-02-25T23:03:51.861Z,69.40
2023-02-25T23:06:22.153Z,64.75
2023-02-25T23:08:51.256Z,52.40
2023-02-25T23:11:21.329Z,56.13
2023-02-25T23:13:51.183Z,47.53
2023-02-25T23:16:19.453Z,42.63
2023-02-25T23:18:48.919Z,52.75
2023-02-25T23:21:19.080Z,38.97
2023-02-25T23:23:48.650Z,50.92
2023-02-25T23:26:17.590Z,52.20
2023-02-25T23:28:45.056Z,38.83
2023-02-25T23:31:24.271Z,43.92
2023-02-25T23:33:55.713Z,45.55
2023-02-25T23:38:55.317Z,44.67
2023-02-25T23:41:23.529Z,40.20
2023-02-25T23:43:55.748Z,46.60
2023-02-25T23:46:24.141Z,37.70
2023-02-25T23:48:58.904Z,45.58
2023-02-25T23:51:27.230Z,42.17
2023-02-25T23:54:01.734Z,44.22
2023-02-25T23:56:29.919Z,42.15
2023-02-25T23:58:57.430Z,42.00
